createdAt,value
2017-10-03T00:05:54.902Z,76.65
2017-10-03T00:07:05.232Z,77.04
2017-10-03T00:08:15.259Z,76.98
2017-10-03T00:09:25.279Z,76.98
2017-10-03T00:10:35.294Z,76.94
2017-10-03T00:11:45.680Z,76.89
2017-10-03T00:12:56.003Z,76.65
2017-10-03T00:14:06.022Z,76.69
2017-10-03T00:15:16.050Z,76.89
2017-10-03T00:16:26.400Z,77.17
2017-10-03T00:17:36.493Z,76.69
2017-10-03T00:18:46.833Z,76.69
2017-10-03T00:19:57.161Z,76.98
2017-10-03T00:21:07.519Z,76.98
2017-10-03T00:22:17.857Z,76.89
2017-10-03T00:23:28.256Z,76.89
2017-10-03T00:24:38.260Z,76.69
2017-10-03T00:25:48.273Z,76.69
2017-10-03T00:26:58.295Z,77.08
2017-10-03T00:28:08.636Z,77.17
2017-10-03T00:29:18.996Z,76.5
2017-10-03T00:30:29.344Z,76.69
2017-10-03T00:31:39.039Z,76.69
2017-10-03T00:32:49.066Z,76.5
2017-10-03T00:33:59.086Z,76.69
2017-10-03T00:35:09.111Z,76.79
2017-10-03T00:36:19.148Z,77.17
2017-10-03T00:37:29.185Z,76.89
2017-10-03T00:38:39.241Z,76.89
2017-10-03T00:39:49.601Z,76.69
2017-10-03T00:40:59.691Z,76.69
2017-10-03T00:42:10.040Z,77.08
2017-10-03T00:43:20.061Z,76.4
2017-10-03T00:44:30.409Z,76.69
2017-10-03T00:45:40.430Z,76.89
2017-10-03T00:46:50.443Z,76.5
2017-10-03T00:48:00.453Z,77.08
2017-10-03T00:49:10.810Z,76.6
2017-10-03T00:50:20.841Z,77.08
2017-10-03T00:51:30.561Z,76.5
2017-10-03T00:52:40.633Z,77.17
2017-10-03T00:53:51.680Z,77.17
2017-10-03T00:55:02.017Z,76.69
2017-10-03T00:56:12.029Z,76.6
2017-10-03T00:57:22.360Z,76.69
2017-10-03T00:58:32.697Z,76.98
2017-10-03T00:59:43.021Z,76.98
2017-10-03T01:00:53.375Z,76.98
2017-10-03T01:02:03.706Z,76.69
2017-10-03T01:03:13.418Z,77.17
2017-10-03T01:04:23.740Z,76.79
2017-10-03T01:05:33.752Z,76.69
2017-10-03T01:06:43.790Z,76.98
2017-10-03T01:07:54.119Z,76.89
2017-10-03T01:09:04.460Z,76.89
2017-10-03T01:10:14.853Z,76.5
2017-10-03T01:11:24.870Z,76.5
2017-10-03T01:12:34.883Z,76.69
2017-10-03T01:13:44.913Z,76.98
2017-10-03T01:14:54.925Z,77.17
2017-10-03T01:16:05.308Z,77.08
2017-10-03T01:17:15.324Z,76.84
2017-10-03T01:18:25.660Z,77.04
2017-10-03T01:19:36.008Z,77.33
2017-10-03T01:20:46.401Z,77.33
2017-10-03T01:21:56.745Z,77.13
2017-10-03T01:23:07.075Z,77.33
2017-10-03T01:24:17.409Z,77.33
2017-10-03T01:25:27.430Z,76.94
2017-10-03T01:26:37.789Z,76.94
2017-10-03T01:27:47.797Z,76.84
2017-10-03T01:28:58.129Z,76.94
2017-10-03T01:30:08.487Z,77.23
2017-10-03T01:31:18.970Z,76.84
2017-10-03T01:32:29.336Z,76.84
2017-10-03T01:33:39.416Z,76.84
2017-10-03T01:34:49.425Z,76.69
2017-10-03T01:35:59.813Z,76.65
2017-10-03T01:37:09.833Z,76.65
2017-10-03T01:38:20.190Z,76.84
2017-10-03T01:39:29.951Z,77.04
2017-10-03T01:40:39.968Z,76.65
2017-10-03T01:41:50.315Z,77.23
2017-10-03T01:43:00.707Z,77.33
2017-10-03T01:44:10.726Z,76.56
2017-10-03T01:45:21.081Z,76.56
2017-10-03T01:46:31.412Z,77.13
2017-10-03T01:47:41.729Z,76.84
2017-10-03T01:48:52.072Z,77.13
2017-10-03T01:50:02.085Z,77.13
2017-10-03T01:51:12.430Z,77.33
2017-10-03T01:52:22.772Z,77.13
2017-10-03T01:53:33.119Z,76.94
2017-10-03T01:54:43.464Z,77.13
2017-10-03T01:55:53.482Z,77.23
2017-10-03T01:57:03.818Z,76.75
2017-10-03T01:58:14.155Z,76.94
2017-10-03T01:59:24.166Z,76.65
2017-10-03T02:00:34.523Z,76.75
2017-10-03T02:01:44.579Z,76.5
2017-10-03T02:02:54.960Z,76.69
2017-10-03T02:04:05.305Z,76.79
2017-10-03T02:05:15.638Z,76.79
2017-10-03T02:06:25.657Z,76.69
2017-10-03T02:07:35.996Z,76.79
2017-10-03T02:08:46.348Z,76.5
2017-10-03T02:09:56.368Z,76.6
2017-10-03T02:11:06.125Z,76.5
2017-10-03T02:12:16.141Z,77.08
2017-10-03T02:13:26.169Z,76.5
2017-10-03T02:14:36.274Z,76.69
2017-10-03T02:15:46.291Z,76.69
2017-10-03T02:16:56.625Z,77.08
2017-10-03T02:18:06.960Z,76.69
2017-10-03T02:19:17.286Z,76.69
2017-10-03T02:20:27.677Z,76.79
2017-10-03T02:21:38.015Z,76.84
2017-10-03T02:22:48.358Z,76.94
2017-10-03T02:23:58.704Z,76.75
2017-10-03T02:25:09.040Z,76.65
2017-10-03T02:26:19.432Z,76.46
2017-10-03T02:27:29.760Z,76.89
2017-10-03T02:28:40.091Z,76.94
2017-10-03T02:29:50.116Z,76.84
2017-10-03T02:31:00.468Z,76.65
2017-10-03T02:32:10.849Z,76.89
2017-10-03T02:33:21.183Z,76.69
2017-10-03T02:34:31.520Z,76.69
2017-10-03T02:35:41.541Z,76.79
2017-10-03T02:36:51.887Z,76.69
2017-10-03T02:38:02.220Z,76.84
2017-10-03T02:39:12.581Z,76.46
2017-10-03T02:40:22.608Z,77.23
2017-10-03T02:41:32.945Z,77.23
2017-10-03T02:42:42.967Z,76.46
2017-10-03T02:43:53.047Z,76.46
2017-10-03T02:45:03.372Z,77.23
2017-10-03T02:46:13.711Z,77.23
2017-10-03T02:47:24.059Z,77.13
2017-10-03T02:48:34.418Z,77.23
2017-10-03T02:49:44.817Z,77.13
2017-10-03T02:50:55.150Z,76.56
2017-10-03T02:52:05.477Z,77.13
2017-10-03T02:53:15.833Z,77.04
2017-10-03T02:54:25.855Z,77.13
2017-10-03T02:55:35.580Z,77.13
2017-10-03T02:56:45.915Z,77.42
2017-10-03T02:57:55.928Z,77.7
2017-10-03T02:59:05.941Z,77.51
2017-10-03T03:00:16.282Z,77.28
2017-10-03T03:01:26.317Z,77.76
2017-10-03T03:33:18.604Z,73.77
2017-10-03T03:34:28.936Z,74.16
2017-10-03T03:35:39.260Z,75.3
2017-10-03T03:36:49.581Z,75.96
2017-10-03T03:37:59.906Z,76.16
2017-10-03T03:39:09.968Z,76.73
2017-10-03T03:40:19.674Z,77.06
2017-10-03T03:41:30.003Z,77.53
2017-10-03T03:42:40.344Z,77.91
2017-10-03T03:43:50.369Z,77.53
2017-10-03T03:45:00.698Z,78.2
2017-10-03T03:46:10.727Z,78.2
2017-10-03T03:47:21.067Z,78.33
2017-10-03T03:48:31.078Z,77.86
2017-10-03T03:49:41.409Z,77.86
2017-10-03T03:50:51.118Z,77.57
2017-10-03T03:52:01.447Z,77.86
2017-10-03T03:53:11.453Z,77.76
2017-10-03T03:54:21.465Z,77.67
2017-10-03T03:55:31.779Z,77.7
2017-10-03T03:56:42.115Z,77.61
2017-10-03T03:57:52.440Z,77.51
2017-10-03T03:59:02.771Z,77.13
2017-10-03T04:00:12.785Z,77.13
2017-10-03T04:01:23.122Z,77.13
2017-10-03T04:02:33.517Z,77.03
2017-10-03T04:03:43.535Z,77.13
2017-10-03T04:04:53.881Z,77.13
2017-10-03T04:06:04.272Z,77.23
2017-10-03T04:07:14.595Z,77.45
2017-10-03T04:08:24.665Z,77.36
2017-10-03T04:09:35.028Z,77.55
2017-10-03T04:10:45.357Z,77.32
2017-10-03T04:11:55.054Z,77.13
2017-10-03T04:13:05.396Z,77.13
2017-10-03T04:14:15.461Z,77.23
2017-10-03T04:15:25.166Z,77.32
2017-10-03T04:16:35.190Z,77.23
2017-10-03T04:17:45.521Z,77.36
2017-10-03T04:18:55.858Z,77.36
2017-10-03T04:20:06.192Z,77.55
2017-10-03T04:21:16.535Z,77.32
2017-10-03T04:22:26.574Z,77.32
2017-10-03T04:23:36.598Z,77.42
2017-10-03T04:24:46.940Z,77.36
2017-10-03T04:25:57.332Z,77.36
2017-10-03T04:27:07.678Z,77.51
2017-10-03T04:28:17.696Z,77.45
2017-10-03T04:29:28.034Z,77.45
2017-10-03T04:30:38.370Z,77.36
2017-10-03T04:31:48.712Z,77.65
2017-10-03T04:32:59.053Z,77.45
2017-10-03T04:34:09.071Z,77.26
2017-10-03T04:35:19.074Z,77.36
2017-10-03T04:36:29.413Z,77.55
2017-10-03T04:37:39.474Z,77.36
2017-10-03T04:38:49.812Z,77.65
2017-10-03T04:39:59.865Z,77.36
2017-10-03T04:41:09.878Z,77.55
2017-10-03T04:42:20.199Z,77.45
2017-10-03T04:43:30.581Z,77.51
2017-10-03T04:44:40.937Z,77.17
2017-10-03T04:45:50.948Z,77.36
2017-10-03T04:47:01.271Z,77.26
2017-10-03T04:48:12.146Z,77.65
2017-10-03T04:49:22.210Z,77.55
2017-10-03T04:50:32.225Z,77.26
2017-10-03T04:51:42.558Z,77.26
2017-10-03T04:52:52.904Z,77.17
2017-10-03T04:54:03.270Z,77.65
2017-10-03T04:55:13.316Z,77.45
2017-10-03T04:56:23.678Z,77.26
2017-10-03T04:57:34.036Z,77.17
2017-10-03T04:58:44.075Z,77.17
2017-10-03T04:59:54.425Z,77.36
2017-10-03T05:01:04.494Z,77.26
2017-10-03T05:02:14.204Z,77.26
2017-10-03T05:03:24.531Z,77.45
2017-10-03T05:04:34.896Z,77.36
2017-10-03T05:05:45.241Z,77.17
2017-10-03T05:06:55.629Z,77.65
2017-10-03T05:08:05.331Z,77.45
2017-10-03T05:09:15.689Z,77.26
2017-10-03T05:10:25.389Z,77.55
2017-10-03T05:11:35.402Z,77.36
2017-10-03T05:12:45.733Z,77.36
2017-10-03T05:13:55.778Z,77.26
2017-10-03T05:15:05.792Z,77.65
2017-10-03T05:16:16.117Z,77.26
2017-10-03T05:17:26.140Z,77.36
2017-10-03T05:18:36.531Z,77.45
2017-10-03T05:19:46.556Z,77.08
2017-10-03T05:20:56.935Z,76.98
2017-10-03T05:22:07.287Z,77.36
2017-10-03T05:23:17.614Z,77.36
2017-10-03T05:24:27.990Z,77.17
2017-10-03T05:25:38.019Z,77.17
2017-10-03T05:26:48.374Z,77.08
2017-10-03T05:27:58.386Z,77.17
2017-10-03T05:29:08.088Z,77.36
2017-10-03T05:30:18.485Z,77.17
2017-10-03T05:31:28.811Z,77.08
2017-10-03T05:32:39.155Z,77.08
2017-10-03T05:33:48.547Z,77.11
2017-10-03T05:34:58.887Z,77.08
2017-10-03T05:36:09.278Z,76.73
2017-10-03T05:37:19.631Z,76.92
2017-10-03T05:38:29.967Z,76.73
2017-10-03T05:39:40.298Z,76.82
2017-10-03T05:40:50.626Z,76.82
2017-10-03T05:42:00.998Z,76.73
2017-10-03T05:43:11.350Z,77.21
2017-10-03T05:44:21.366Z,76.82
2017-10-03T05:45:31.374Z,77.21
2017-10-03T05:46:41.411Z,77.01
2017-10-03T05:47:51.740Z,77.21
2017-10-03T05:49:01.441Z,77.01
2017-10-03T05:50:12.613Z,76.92
2017-10-03T05:51:22.950Z,77.21
2017-10-03T05:52:33.280Z,77.11
2017-10-03T05:53:43.306Z,77.21
2017-10-03T05:54:53.320Z,77.11
2017-10-03T05:56:03.675Z,77.11
2017-10-03T05:57:14.000Z,76.96
2017-10-03T05:58:24.057Z,76.77
2017-10-03T05:59:34.115Z,76.86
2017-10-03T06:00:44.436Z,76.86
2017-10-03T06:01:54.763Z,77.15
2017-10-03T06:03:05.079Z,77.06
2017-10-03T06:04:15.405Z,77.06
2017-10-03T06:05:25.474Z,77.25
2017-10-03T06:06:35.814Z,76.86
2017-10-03T06:07:45.832Z,76.77
2017-10-03T06:08:56.164Z,76.96
2017-10-03T06:10:06.499Z,76.96
2017-10-03T06:11:16.517Z,76.96
2017-10-03T06:12:26.870Z,76.86
2017-10-03T06:13:37.200Z,76.67
2017-10-03T06:14:46.905Z,76.96
2017-10-03T06:15:56.923Z,76.96
2017-10-03T06:17:07.300Z,77.25
2017-10-03T06:18:17.628Z,77.15
2017-10-03T06:19:27.969Z,77.15
2017-10-03T06:20:38.321Z,77.53
2017-10-03T06:21:48.659Z,76.96
2017-10-03T06:22:58.730Z,77.44
2017-10-03T06:24:09.052Z,77.25
2017-10-03T06:25:19.392Z,77.06
2017-10-03T06:26:29.737Z,76.96
2017-10-03T06:27:40.082Z,76.96
2017-10-03T06:28:50.399Z,76.67
2017-10-03T06:30:00.731Z,76.67
2017-10-03T06:31:10.759Z,77.06
2017-10-03T06:32:20.774Z,77.06
2017-10-03T06:33:31.106Z,77.15
2017-10-03T06:34:41.487Z,76.86
2017-10-03T06:35:51.513Z,76.9
2017-10-03T06:37:01.535Z,76.62
2017-10-03T06:38:11.868Z,76.33
2017-10-03T06:39:21.890Z,76.81
2017-10-03T06:40:31.591Z,76.62
2017-10-03T06:41:41.284Z,76.81
2017-10-03T06:42:51.621Z,76.62
2017-10-03T06:44:01.949Z,77.15
2017-10-03T06:45:12.286Z,76.77
2017-10-03T06:46:22.346Z,76.77
2017-10-03T06:47:32.368Z,76.77
2017-10-03T06:48:42.699Z,76.86
2017-10-03T06:49:53.023Z,76.77
2017-10-03T06:51:03.380Z,76.86
2017-10-03T06:52:13.765Z,76.77
2017-10-03T06:53:24.091Z,76.77
2017-10-03T06:54:33.791Z,76.39
2017-10-03T06:55:43.823Z,76.86
2017-10-03T06:56:54.161Z,76.67
2017-10-03T06:58:04.223Z,76.67
2017-10-03T06:59:14.559Z,76.67
2017-10-03T07:00:24.915Z,76.67
2017-10-03T07:01:34.936Z,76.77
2017-10-03T07:02:45.309Z,76.57
2017-10-03T07:03:55.395Z,76.67
2017-10-03T07:05:05.430Z,76.81
2017-10-03T07:06:15.777Z,76.52
2017-10-03T07:07:26.113Z,76.71
2017-10-03T07:08:36.454Z,76.62
2017-10-03T07:09:46.981Z,76.23
2017-10-03T07:10:56.996Z,76.23
2017-10-03T07:12:07.015Z,76.62
2017-10-03T07:13:17.026Z,76.62
2017-10-03T07:14:26.732Z,76.71
2017-10-03T07:15:36.788Z,76.33
2017-10-03T07:16:46.824Z,76.81
2017-10-03T07:17:57.153Z,76.14
2017-10-03T07:19:07.490Z,75.95
2017-10-03T07:20:17.840Z,76.14
2017-10-03T07:21:28.207Z,76.14
2017-10-03T07:22:38.555Z,76.04
2017-10-03T07:23:48.252Z,76.04
2017-10-03T07:24:58.587Z,76.14
2017-10-03T07:26:08.608Z,76.42
2017-10-03T07:27:19.008Z,75.85
2017-10-03T07:28:29.343Z,76.04
2017-10-03T07:29:39.356Z,76.18
2017-10-03T07:30:49.372Z,76.08
2017-10-03T07:31:59.393Z,75.85
2017-10-03T07:33:09.719Z,75.79
2017-10-03T07:34:19.732Z,76.04
2017-10-03T07:35:29.765Z,76.08
2017-10-03T07:36:40.093Z,76.08
2017-10-03T07:37:50.120Z,76.08
2017-10-03T07:39:00.507Z,75.98
2017-10-03T07:40:10.879Z,76.08
2017-10-03T07:41:21.212Z,76.08
2017-10-03T07:42:31.553Z,75.89
2017-10-03T07:43:41.910Z,76.08
2017-10-03T07:44:53.094Z,75.89
2017-10-03T07:46:03.440Z,75.89
2017-10-03T07:47:13.783Z,75.89
2017-10-03T07:48:24.113Z,76.08
2017-10-03T07:49:34.128Z,76.08
2017-10-03T07:50:44.509Z,76.08
2017-10-03T07:51:54.865Z,75.89
2017-10-03T07:53:05.215Z,75.89
2017-10-03T07:54:15.565Z,76.27
2017-10-03T07:55:25.584Z,76.18
2017-10-03T07:56:35.654Z,76.08
2017-10-03T07:57:46.001Z,75.98
2017-10-03T07:58:56.327Z,75.89
2017-10-03T08:00:06.705Z,76.08
2017-10-03T08:01:17.051Z,75.79
2017-10-03T08:02:27.382Z,75.93
2017-10-03T08:03:37.764Z,75.73
2017-10-03T08:04:48.234Z,75.73
2017-10-03T08:05:58.584Z,75.35
2017-10-03T08:07:09.014Z,75.54
2017-10-03T08:08:19.353Z,75.35
2017-10-03T08:09:29.399Z,75.73
2017-10-03T08:10:39.747Z,75.73
2017-10-03T08:11:50.080Z,76.12
2017-10-03T08:13:00.420Z,75.54
2017-10-03T08:14:10.764Z,75.64
2017-10-03T08:15:21.163Z,75.83
2017-10-03T08:16:31.496Z,75.73
2017-10-03T08:17:41.530Z,75.77
2017-10-03T08:18:51.877Z,75.64
2017-10-03T08:20:02.204Z,75.96
2017-10-03T08:21:13.083Z,76.15
2017-10-03T08:22:23.440Z,75.48
2017-10-03T08:23:33.801Z,75.39
2017-10-03T08:24:43.821Z,75.39
2017-10-03T08:25:53.853Z,75.29
2017-10-03T08:27:04.281Z,75.68
2017-10-03T08:28:14.323Z,75.29
2017-10-03T08:29:24.671Z,75.2
2017-10-03T08:30:35.019Z,75.23
2017-10-03T08:31:44.725Z,74.66
2017-10-03T08:32:54.738Z,74.18
2017-10-03T08:34:04.122Z,74.47
2017-10-03T08:35:14.478Z,74.37
2017-10-03T08:36:24.806Z,75.14
2017-10-03T08:37:34.823Z,75.33
2017-10-03T08:38:45.027Z,75.81
2017-10-03T08:39:55.498Z,75.71
2017-10-03T08:41:05.835Z,76
2017-10-03T08:42:15.871Z,75.52
2017-10-03T08:43:26.212Z,75.77
2017-10-03T08:44:36.627Z,75.48
2017-10-03T08:45:46.981Z,76
2017-10-03T08:46:57.333Z,75.71
2017-10-03T08:48:07.607Z,75.9
2017-10-03T08:49:17.643Z,76.1
2017-10-03T08:50:28.049Z,75.62
2017-10-03T08:51:38.385Z,75.71
2017-10-03T08:52:48.733Z,75.62
2017-10-03T08:53:59.083Z,76.25
2017-10-03T08:55:09.423Z,75.96
2017-10-03T08:56:19.816Z,75.96
2017-10-03T08:57:30.157Z,75.87
2017-10-03T08:58:40.510Z,76.44
2017-10-03T08:59:50.529Z,76.54
2017-10-03T09:01:00.559Z,75.96
2017-10-03T09:02:10.913Z,75.87
2017-10-03T09:03:21.163Z,76.06
2017-10-03T09:04:31.518Z,76.15
2017-10-03T09:05:41.884Z,76.15
2017-10-03T09:06:52.222Z,75.87
2017-10-03T09:08:02.592Z,75.87
2017-10-03T09:09:12.932Z,76.44
2017-10-03T09:10:23.297Z,76.35
2017-10-03T09:11:33.639Z,76.35
2017-10-03T09:12:44.003Z,76.54
2017-10-03T09:13:55.339Z,76.25
2017-10-03T09:15:05.799Z,76.12
2017-10-03T09:16:16.139Z,76.79
2017-10-03T09:17:26.493Z,77.08
2017-10-03T09:18:36.205Z,76.6
2017-10-03T09:19:47.277Z,76.89
2017-10-03T09:20:57.328Z,76.79
2017-10-03T09:22:07.675Z,76.98
2017-10-03T09:23:17.379Z,76.6
2017-10-03T09:24:27.729Z,77.08
2017-10-03T09:25:38.081Z,76.6
2017-10-03T09:26:48.419Z,76.12
2017-10-03T09:27:58.772Z,76.21
2017-10-03T09:29:08.807Z,76.12
2017-10-03T09:30:19.147Z,76.12
2017-10-03T09:31:29.220Z,76.12
2017-10-03T09:32:39.551Z,76.21
2017-10-03T09:33:49.891Z,76.02
2017-10-03T09:34:59.931Z,76.02
2017-10-03T09:36:09.962Z,76.12
2017-10-03T09:37:20.046Z,76.21
2017-10-03T09:38:30.404Z,76.5
2017-10-03T09:39:40.752Z,76.31
2017-10-03T09:40:51.145Z,76.31
2017-10-03T09:42:01.491Z,76.15
2017-10-03T09:43:11.889Z,75.54
2017-10-03T09:44:22.230Z,75.77
2017-10-03T09:45:32.584Z,75.77
2017-10-03T09:46:42.951Z,75.68
2017-10-03T09:47:52.968Z,75.68
2017-10-03T09:49:03.049Z,75.58
2017-10-03T09:50:13.083Z,75.68
2017-10-03T09:51:22.801Z,75.1
2017-10-03T09:52:33.147Z,75.33
2017-10-03T09:53:43.179Z,75.14
2017-10-03T09:54:53.244Z,75.14
2017-10-03T09:56:03.605Z,75.33
2017-10-03T09:57:13.950Z,75.33
2017-10-03T09:58:24.292Z,74.95
2017-10-03T09:59:34.651Z,75.23
2017-10-03T10:00:44.677Z,75.37
2017-10-03T10:01:55.035Z,75.43
2017-10-03T10:03:05.362Z,75.14
2017-10-03T10:04:15.724Z,75.71
2017-10-03T10:05:27.050Z,75.62
2017-10-03T10:06:37.474Z,75.43
2017-10-03T10:07:47.834Z,75.9
2017-10-03T10:08:58.180Z,75.62
2017-10-03T10:10:08.524Z,75.71
2017-10-03T10:11:18.876Z,75.87
2017-10-03T10:12:28.918Z,76.06
2017-10-03T10:13:38.316Z,76.35
2017-10-03T10:14:48.640Z,76.54
2017-10-03T10:15:58.669Z,76.15
2017-10-03T10:17:09.032Z,76.15
2017-10-03T10:18:19.451Z,76.35
2017-10-03T10:19:29.815Z,76.06
2017-10-03T10:20:40.140Z,76.25
2017-10-03T10:21:50.192Z,76.44
2017-10-03T10:23:00.222Z,76.35
2017-10-03T10:24:10.253Z,76.35
2017-10-03T10:25:20.299Z,76.44
2017-10-03T10:26:30.653Z,76.35
2017-10-03T10:27:40.701Z,76.5
2017-10-03T10:28:51.045Z,76.15
2017-10-03T10:30:01.429Z,76.06
2017-10-03T10:31:11.464Z,75.96
2017-10-03T10:32:21.496Z,75.58
2017-10-03T10:33:31.849Z,75.77
2017-10-03T10:34:42.202Z,75.81
2017-10-03T10:35:52.627Z,76
2017-10-03T10:37:02.996Z,76
2017-10-03T10:38:12.718Z,76
2017-10-03T10:39:22.745Z,75.81
2017-10-03T10:40:32.774Z,75.81
2017-10-03T10:41:43.165Z,75.96
2017-10-03T10:42:53.521Z,76.35
2017-10-03T10:44:03.556Z,76.25
2017-10-03T10:45:13.893Z,76.25
2017-10-03T10:46:23.931Z,76.35
2017-10-03T10:47:34.329Z,76.15
2017-10-03T10:48:44.700Z,76.35
2017-10-03T10:49:55.158Z,76.35
2017-10-03T10:51:05.248Z,76.35
2017-10-03T10:52:15.588Z,76.35
2017-10-03T10:53:25.984Z,76.73
2017-10-03T10:54:36.025Z,76.98
2017-10-03T10:55:46.072Z,77.08
2017-10-03T10:56:56.108Z,77.46
2017-10-03T10:58:06.118Z,77.26
2017-10-03T10:59:16.514Z,77.23
2017-10-03T11:00:26.852Z,77.42
2017-10-03T11:01:37.192Z,77.33
2017-10-03T11:02:47.234Z,77.33
2017-10-03T11:03:58.502Z,77.55
2017-10-03T11:05:08.585Z,77.23
2017-10-03T11:06:18.614Z,77.08
2017-10-03T11:07:28.644Z,76.79
2017-10-03T11:08:38.689Z,76.89
2017-10-03T11:09:48.720Z,76.69
2017-10-03T11:10:58.826Z,76.4
2017-10-03T11:12:08.865Z,76.79
2017-10-03T11:13:18.900Z,76.12
2017-10-03T11:14:28.931Z,76.12
2017-10-03T11:15:38.994Z,76.12
2017-10-03T11:16:49.395Z,76.12
2017-10-03T11:17:59.730Z,76.12
2017-10-03T11:19:10.073Z,76.31
2017-10-03T11:20:20.467Z,76.79
2017-10-03T11:21:30.826Z,76.69
2017-10-03T11:22:41.232Z,76.89
2017-10-03T11:23:51.581Z,77.17
2017-10-03T11:25:01.978Z,77.08
2017-10-03T11:26:12.323Z,77.26
2017-10-03T11:27:22.676Z,77.17
2017-10-03T11:28:33.011Z,77.08
2017-10-03T11:29:43.052Z,77.36
2017-10-03T11:30:54.074Z,77.26
2017-10-03T11:32:04.423Z,77.55
2017-10-03T11:33:14.822Z,76.89
2017-10-03T11:34:25.220Z,76.89
2017-10-03T11:35:35.264Z,76.98
2017-10-03T11:36:45.614Z,77.26
2017-10-03T11:37:56.079Z,77.17
2017-10-03T11:39:06.108Z,77.17
2017-10-03T11:40:16.258Z,77.46
2017-10-03T11:41:26.605Z,77.46
2017-10-03T11:42:36.632Z,77.36
2017-10-03T11:43:46.981Z,77.17
2017-10-03T11:44:57.321Z,77.36
2017-10-03T11:46:07.729Z,77.55
2017-10-03T11:47:17.777Z,77.75
2017-10-03T11:48:27.188Z,77.46
2017-10-03T11:49:37.531Z,77.75
2017-10-03T11:50:47.700Z,77.84
2017-10-03T11:51:57.796Z,77.65
2017-10-03T11:53:08.184Z,77.75
2017-10-03T11:54:18.549Z,77.55
2017-10-03T11:55:28.907Z,77.46
2017-10-03T11:56:38.929Z,77.51
2017-10-03T11:57:49.340Z,77.55
2017-10-03T11:58:59.675Z,77.46
2017-10-03T12:00:11.124Z,77.75
2017-10-03T12:01:21.594Z,77.55
2017-10-03T12:02:31.954Z,77.46
2017-10-03T12:03:41.978Z,77.65
2017-10-03T12:04:51.999Z,77.36
2017-10-03T12:06:02.358Z,77.26
2017-10-03T12:07:12.710Z,77.36
2017-10-03T12:08:22.752Z,76.98
2017-10-03T12:09:32.776Z,77.02
2017-10-03T12:10:43.195Z,76.82
2017-10-03T12:11:53.251Z,76.89
2017-10-03T12:13:03.304Z,77.02
2017-10-03T12:14:13.674Z,77.11
2017-10-03T12:15:24.031Z,77.02
2017-10-03T12:16:34.672Z,76.92
2017-10-03T12:17:45.079Z,76.64
2017-10-03T12:18:56.268Z,76.35
2017-10-03T12:20:07.034Z,76.35
2017-10-03T12:21:17.054Z,76.54
2017-10-03T12:22:28.671Z,76.54
2017-10-03T12:23:40.085Z,76.54
2017-10-03T12:24:50.443Z,76.77
2017-10-03T12:26:00.808Z,76.73
2017-10-03T12:27:10.832Z,76.86
2017-10-03T12:28:21.240Z,76.67
2017-10-03T12:29:31.598Z,76.67
2017-10-03T12:30:41.973Z,76.67
2017-10-03T12:31:51.998Z,76.57
2017-10-03T12:33:02.354Z,76.57
2017-10-03T12:34:12.446Z,76.57
2017-10-03T12:35:23.725Z,76.96
2017-10-03T12:36:36.054Z,76.77
2017-10-03T12:37:46.397Z,76.96
2017-10-03T12:38:56.763Z,76.77
2017-10-03T12:40:06.823Z,77.34
2017-10-03T12:41:17.165Z,76.96
2017-10-03T12:42:27.195Z,77.34
2017-10-03T12:43:36.898Z,77.34
2017-10-03T12:44:47.242Z,77.34
2017-10-03T12:45:57.314Z,77.44
2017-10-03T12:47:07.698Z,77.34
2017-10-03T12:48:17.735Z,77.34
2017-10-03T12:49:27.797Z,77.44
2017-10-03T12:50:37.510Z,77.06
2017-10-03T12:51:47.855Z,76.96
2017-10-03T12:52:58.198Z,77.06
2017-10-03T12:54:08.549Z,77.09
2017-10-03T12:55:18.906Z,77.09
2017-10-03T12:56:29.271Z,77.19
2017-10-03T12:57:39.679Z,77
2017-10-03T12:58:50.008Z,77.19
2017-10-03T13:00:00.372Z,77.09
2017-10-03T13:01:10.718Z,77
2017-10-03T13:02:21.101Z,77.48
2017-10-03T13:03:31.540Z,77.23
2017-10-03T13:04:41.895Z,77.38
2017-10-03T13:05:51.910Z,77.23
2017-10-03T13:07:01.944Z,77.19
2017-10-03T13:08:12.309Z,77.8
2017-10-03T13:09:22.416Z,77.67
2017-10-03T13:10:32.772Z,77.58
2017-10-03T13:11:43.125Z,77.48
2017-10-03T13:12:53.473Z,77.51
2017-10-03T13:14:03.823Z,77.51
2017-10-03T13:15:13.942Z,77.8
2017-10-03T13:16:23.976Z,78
2017-10-03T13:17:34.315Z,78.28
2017-10-03T13:18:44.667Z,78.19
2017-10-03T13:19:54.702Z,78.09
2017-10-03T13:21:05.048Z,77.8
2017-10-03T13:22:15.414Z,78.05
2017-10-03T13:23:25.773Z,78.47
2017-10-03T13:24:35.801Z,78.34
2017-10-03T13:25:46.159Z,78.38
2017-10-03T13:26:56.568Z,78.34
2017-10-03T13:28:06.610Z,78.34
2017-10-03T13:29:16.977Z,78.53
2017-10-03T13:30:27.337Z,78.34
2017-10-03T13:31:37.673Z,78.63
2017-10-03T13:32:48.084Z,78.44
2017-10-03T13:33:58.131Z,78.19
2017-10-03T13:35:08.218Z,78
2017-10-03T13:36:18.269Z,78.09
2017-10-03T13:37:28.314Z,78.19
2017-10-03T13:38:38.737Z,78.19
2017-10-03T13:39:49.183Z,78
2017-10-03T13:40:59.241Z,78.38
2017-10-03T13:42:09.574Z,78.28
2017-10-03T13:43:19.956Z,78.09
2017-10-03T13:44:30.351Z,78.19
2017-10-03T13:45:40.722Z,78.19
2017-10-03T13:46:51.055Z,78.63
2017-10-03T13:48:01.449Z,78.34
2017-10-03T13:49:11.177Z,78.15
2017-10-03T13:50:21.565Z,78.25
2017-10-03T13:51:31.899Z,78
2017-10-03T13:52:42.271Z,78
2017-10-03T13:53:52.623Z,77.8
2017-10-03T13:55:02.651Z,78
2017-10-03T13:56:12.141Z,77.71
2017-10-03T13:57:22.510Z,77.33
2017-10-03T13:58:32.578Z,78
2017-10-03T13:59:42.935Z,77.51
2017-10-03T14:00:53.275Z,77.61
2017-10-03T14:02:03.053Z,77.8
2017-10-03T14:03:13.089Z,77.51
2017-10-03T14:04:23.445Z,77.8
2017-10-03T14:05:33.803Z,78.09
2017-10-03T14:06:43.831Z,78.09
2017-10-03T14:07:53.923Z,78
2017-10-03T14:09:04.272Z,78.09
2017-10-03T14:10:13.989Z,77.61
2017-10-03T14:11:24.340Z,78
2017-10-03T14:12:34.371Z,77.9
2017-10-03T14:13:44.407Z,78.28
2017-10-03T14:14:54.448Z,78
2017-10-03T14:16:04.803Z,78.38
2017-10-03T14:17:15.161Z,77.8
2017-10-03T14:18:25.176Z,77.51
2017-10-03T14:19:35.527Z,78
2017-10-03T14:20:45.876Z,77.8
2017-10-03T14:21:56.224Z,77.71
2017-10-03T14:23:06.270Z,77.51
2017-10-03T14:24:16.621Z,77.8
2017-10-03T14:25:27.043Z,77.8
2017-10-03T14:26:37.091Z,78.15
2017-10-03T14:27:47.129Z,78.05
2017-10-03T14:28:57.477Z,78.05
2017-10-03T14:30:07.845Z,77.95
2017-10-03T14:31:18.256Z,77.86
2017-10-03T14:32:28.636Z,77.76
2017-10-03T14:33:38.697Z,78.15
2017-10-03T14:34:49.046Z,78.15
2017-10-03T14:35:59.405Z,77.76
2017-10-03T14:37:09.501Z,77.67
2017-10-03T14:38:19.543Z,78.05
2017-10-03T14:39:29.911Z,77.95
2017-10-03T14:40:40.252Z,78.15
2017-10-03T14:41:50.594Z,78.15
2017-10-03T14:43:00.926Z,77.95
2017-10-03T14:44:11.275Z,78.63
2017-10-03T14:45:21.644Z,78.63
2017-10-03T14:46:32.049Z,78.63
2017-10-03T14:47:42.397Z,78.53
2017-10-03T14:48:52.752Z,78.63
2017-10-03T14:50:03.107Z,78.34
2017-10-03T14:51:13.481Z,78.53
2017-10-03T14:52:23.880Z,78.25
2017-10-03T14:53:33.944Z,78.15
2017-10-03T14:54:44.354Z,78.53
2017-10-03T14:55:54.077Z,77.95
2017-10-03T14:57:04.110Z,78.15
2017-10-03T14:58:14.459Z,78.25
2017-10-03T14:59:24.831Z,78.15
2017-10-03T15:00:34.563Z,78.15
2017-10-03T15:01:44.952Z,78.15
2017-10-03T15:02:54.980Z,78.15
2017-10-03T15:04:05.351Z,78.05
2017-10-03T15:05:15.735Z,78.25
2017-10-03T15:06:26.165Z,78.05
2017-10-03T15:07:36.243Z,78.44
2017-10-03T15:08:46.599Z,78.53
2017-10-03T15:09:56.652Z,78.15
2017-10-03T15:11:07.024Z,78.25
2017-10-03T15:12:17.452Z,78.15
2017-10-03T15:13:27.821Z,78.15
2017-10-03T15:14:37.857Z,78.05
2017-10-03T15:15:47.900Z,78.15
2017-10-03T15:16:58.238Z,78.34
2017-10-03T15:18:08.626Z,78.25
2017-10-03T15:19:18.979Z,78.25
2017-10-03T15:20:29.035Z,78.44
2017-10-03T15:21:39.086Z,78.25
2017-10-03T15:22:49.441Z,78.15
2017-10-03T15:23:59.841Z,78.15
2017-10-03T15:25:10.410Z,78.25
2017-10-03T15:26:21.779Z,78.15
2017-10-03T15:27:32.131Z,78.53
2017-10-03T15:28:42.498Z,78.25
2017-10-03T15:29:52.592Z,78.11
2017-10-03T15:31:03.092Z,78.44
2017-10-03T15:32:13.450Z,78.15
2017-10-03T15:33:23.748Z,78.15
2017-10-03T15:34:34.605Z,78.15
2017-10-03T15:35:45.256Z,78.15
2017-10-03T15:36:55.843Z,78.34
2017-10-03T15:38:06.470Z,78.05
2017-10-03T15:39:16.873Z,78.11
2017-10-03T15:40:27.405Z,78.25
2017-10-03T15:41:37.928Z,78.15
2017-10-03T15:42:47.980Z,78.02
2017-10-03T15:43:58.376Z,78.05